WetterOnline ( https://www.wetteronline.at )

Wetter aktuell Oschatz

Aktuelles Wetter: Oschatz (152m)

6-stündlich | Neueste Meldungen
Ortszeit Temperatur Wetter
Mo, 06.07. 2:00 20.5° C fast wolkenlos
So, 05.07. 20:00 25.8° C wolkenlos
So, 05.07. 14:00 25.3° C bedeckt
So, 05.07. 8:00 21.4° C bewölkt
So, 05.07. 2:00 18.9° C fast wolkenlos
Sa, 04.07. 20:00 25.4° C bewölkt
Sa, 04.07. 14:00 26.0° C wolkig
Sa, 04.07. 8:00 18.6° C wolkenlos
Ortszeit Temperatur Wetter
Mo, 06.07. 4:00 19.0° C fast wolkenlos
Mo, 06.07. 3:30 19.2° C fast wolkenlos
Mo, 06.07. 3:20 19.2° C fast wolkenlos
Mo, 06.07. 3:10 19.8° C leicht bewölkt
Mo, 06.07. 3:00 20.6° C fast wolkenlos
Mo, 06.07. 2:50 20.6° C fast wolkenlos
Mo, 06.07. 2:30 21.2° C wolkenlos
Mo, 06.07. 2:00 20.5° C fast wolkenlos
Ortszeit Relative Feuchte Sichtweite
Mo, 06.07. 2:00 69% >70 km
So, 05.07. 20:00 50% >70 km
So, 05.07. 14:00 51% >70 km
So, 05.07. 8:00 58% >70 km
So, 05.07. 2:00 62% >70 km
Sa, 04.07. 20:00 36% 65 km
Sa, 04.07. 14:00 35% 55 km
Sa, 04.07. 8:00 60% 65 km
Ortszeit Relative Feuchte Sichtweite
Mo, 06.07. 4:00 74% >70 km
Mo, 06.07. 3:30 73% >70 km
Mo, 06.07. 3:20 73% -
Mo, 06.07. 3:10 71% -
Mo, 06.07. 3:00 68% >70 km
Mo, 06.07. 2:50 68% -
Mo, 06.07. 2:30 66% >70 km
Mo, 06.07. 2:00 69% >70 km
Ortszeit Niederschlagsmenge Niederschlagsart
Mo, 06.07. 2:00 0.0 l/m2 in 6 Std. -
So, 05.07. 20:00 0.0 l/m2 in 12 Std. -
So, 05.07. 14:00 0.0 l/m2 in 6 Std. -
So, 05.07. 8:00 0.1 l/m2 in 12 Std. Regen
So, 05.07. 2:00 0.0 l/m2 in 6 Std. -
Sa, 04.07. 20:00 0.0 l/m2 in 12 Std. -
Sa, 04.07. 14:00 0.0 l/m2 in 6 Std. -
Sa, 04.07. 8:00 0.0 l/m2 in 12 Std. -
Ortszeit Niederschlagsmenge Niederschlagsart
Mo, 06.07. 4:00 keine Meldung -
Mo, 06.07. 3:30 0.0 l/m2 in 1 Std. -
Mo, 06.07. 3:20 keine Meldung -
Mo, 06.07. 3:10 keine Meldung -
Mo, 06.07. 3:00 0.0 l/m2 in 1 Std. -
Mo, 06.07. 2:50 keine Meldung -
Mo, 06.07. 2:30 0.0 l/m2 in 1 Std. -
Mo, 06.07. 2:00 0.0 l/m2 in 1 Std. -
Ortszeit Stärke Spitze Richtung
km/h Bft. km/h Grad Sektor
Mo, 06.07. 2:00 17 3 41 240° SW
So, 05.07. 20:00 22 4 50 220° SW
So, 05.07. 14:00 28 4 54 240° SW
So, 05.07. 8:00 18 3 32 230° SW
So, 05.07. 2:00 9 2 30 220° SW
Sa, 04.07. 20:00 18 3 47 240° SW
Sa, 04.07. 14:00 14 3 43 230° SW
Sa, 04.07. 8:00 14 3 25 230° SW
Ortszeit Stärke Spitze Richtung
km/h Bft. km/h Grad Sektor
Mo, 06.07. 4:00 13 3 19 240° SW
Mo, 06.07. 3:30 9 2 19 230° SW
Mo, 06.07. 3:20 9 2 - 230° SW
Mo, 06.07. 3:10 11 2 - 240° SW
Mo, 06.07. 3:00 13 3 31 250° W
Mo, 06.07. 2:50 13 3 - 250° W
Mo, 06.07. 2:30 17 3 28 240° SW
Mo, 06.07. 2:00 17 3 26 240° SW
Ortszeit Untergrenze Bedeckung Gattung
total tief tief mittel hoch
Mo, 06.07. 2:00 1500 m 1/8 1/8 - - -
So, 05.07. 20:00 2100 m 0/8 0/8 - - -
So, 05.07. 14:00 1350 m 8/8 8/8 - - -
So, 05.07. 8:00 1350 m 8/8 7/8 - - -
So, 05.07. 2:00 3900 m 1/8 1/8 - - -
Sa, 04.07. 20:00 2400 m 8/8 4/8 - - -
Sa, 04.07. 14:00 5400 m 8/8 8/8 - - -
Sa, 04.07. 8:00 - 0/8 0/8 - - -
Ortszeit Bedeckungsgrad in Achtel und Wolkenuntergrenze
Mo, 06.07. 4:00 1(1380m)
Mo, 06.07. 3:30 1(1290m)
Mo, 06.07. 3:20 1(1290m)
Mo, 06.07. 3:10 2(1290m)
Mo, 06.07. 3:00 1(1230m)
Mo, 06.07. 2:50 1(1230m)
Mo, 06.07. 2:30 keine Wolken
Mo, 06.07. 2:00 1(1500m)
Ortszeit Luftdruck NN (hPa) Tendenz (hPa in 3 Std.)
Mo, 06.07. 2:00 1010 - 0,5
So, 05.07. 20:00 1010 - 1,3
So, 05.07. 14:00 1012 - 0,5
So, 05.07. 8:00 1013 0,0
So, 05.07. 2:00 1014 - 0,2
Sa, 04.07. 20:00 1014 - 0,6
Sa, 04.07. 14:00 1015 - 1,5
Sa, 04.07. 8:00 1017 + 0,2
Ortszeit Luftdruck NN (hPa) Tendenz (hPa in 3 Std.)
Mo, 06.07. 4:00 1009 - 0,3
Mo, 06.07. 3:30 1009 - 0,6
Mo, 06.07. 3:20 1009 keine Meldung
Mo, 06.07. 3:10 1009 keine Meldung
Mo, 06.07. 3:00 1009 - 0,5
Mo, 06.07. 2:50 1009 keine Meldung
Mo, 06.07. 2:30 1009 - 0,8
Mo, 06.07. 2:00 1010 - 0,5
Ortszeit Schneehöhe (cm)
Mo, 06.07. 2:00 -
So, 05.07. 20:00 -
So, 05.07. 14:00 -
So, 05.07. 8:00 -
So, 05.07. 2:00 -
Sa, 04.07. 20:00 -
Sa, 04.07. 14:00 -
Sa, 04.07. 8:00 -
Ortszeit Schneehöhe (cm)
Mo, 06.07. 4:00 -
Mo, 06.07. 3:30 -
Mo, 06.07. 3:20 -
Mo, 06.07. 3:10 -
Mo, 06.07. 3:00 -
Mo, 06.07. 2:50 -
Mo, 06.07. 2:30 -
Mo, 06.07. 2:00 -
Link zu dieser Seite / Seite empfehlen

Das Wetter in ...